Time;durP1;ratioP1;P1;durP2;ratioP2;P2;SDS_P1;SDS_P2;PMS_P1;PMS_P2;Temp;Humidity;BMP_temperature;BMP_pressure;BME280_temperature;BME280_humidity;BME280_pressure;Samples;Min_cycle;Max_cycle;Signal;HPM_P1;HPM_P2
2022/01/28 00:01:43;;;;;;;2.38;1.15;;;23.40;31.90;;;;;;5024645;28;20025;-51
2022/01/28 00:04:14;;;;;;;3.47;1.77;;;23.40;31.90;;;;;;5026953;28;20116;-51
2022/01/28 00:06:40;;;;;;;2.33;1.25;;;23.40;31.90;;;;;;5026361;28;20025;-50
2022/01/28 00:09:06;;;;;;;2.47;1.42;;;23.40;31.90;;;;;;5026279;28;20095;-50
2022/01/28 00:11:32;;;;;;;2.72;1.33;;;23.40;32.00;;;;;;5026692;28;20060;-49
2022/01/28 00:14:23;;;;;;;2.13;1.02;;;23.40;32.00;;;;;;5025730;28;20440;-49
2022/01/28 00:38:44;;;;;;;2.25;1.13;;;23.30;32.00;;;;;;5025705;28;20033;-50
2022/01/28 00:41:10;;;;;;;1.40;0.80;;;23.20;32.00;;;;;;5025027;28;20018;-50
2022/01/28 00:43:36;;;;;;;1.50;0.82;;;23.20;32.00;;;;;;5026074;28;20033;-49
2022/01/28 00:46:02;;;;;;;1.80;0.90;;;23.20;32.00;;;;;;5025545;28;20029;-51
2022/01/28 00:48:27;;;;;;;2.13;1.10;;;23.20;32.00;;;;;;5025336;28;20029;-50
2022/01/28 00:50:53;;;;;;;1.77;0.85;;;23.20;32.00;;;;;;5025665;28;20135;-51
2022/01/28 00:53:19;;;;;;;1.85;1.13;;;23.20;32.00;;;;;;5025363;28;20091;-49
2022/01/28 00:55:45;;;;;;;2.10;1.00;;;23.20;32.00;;;;;;5025599;28;20038;-50
2022/01/28 00:58:10;;;;;;;1.42;0.80;;;23.20;32.00;;;;;;5021871;28;20750;-50
2022/01/28 01:00:36;;;;;;;1.95;1.00;;;23.20;32.00;;;;;;5019121;28;20607;-50
2022/01/28 01:03:02;;;;;;;1.70;1.02;;;23.10;32.00;;;;;;5025382;28;20087;-49
2022/01/28 01:05:32;;;;;;;1.98;0.90;;;23.10;32.00;;;;;;5024270;28;20021;-51
2022/01/28 01:07:58;;;;;;;2.03;0.95;;;23.10;32.00;;;;;;5025736;28;20480;-51
2022/01/28 01:10:26;;;;;;;1.55;0.88;;;23.10;32.00;;;;;;5025862;28;20116;-51
2022/01/28 01:12:52;;;;;;;1.42;0.80;;;23.10;32.00;;;;;;5025338;28;20422;-50
2022/01/28 01:15:21;;;;;;;1.73;0.73;;;23.10;32.00;;;;;;5025587;28;20041;-51
2022/01/28 01:23:05;;;;;;;1.58;0.80;;;23.10;32.00;;;;;;5025528;28;20056;-50
2022/01/28 01:25:37;;;;;;;1.17;0.73;;;23.00;32.00;;;;;;5024411;28;20323;-50
2022/01/28 01:28:03;;;;;;;1.35;0.70;;;23.00;32.00;;;;;;5024906;28;20030;-50
2022/01/28 01:30:33;;;;;;;1.85;0.73;;;23.10;32.10;;;;;;5024925;28;20417;-50
2022/01/28 01:32:59;;;;;;;1.60;0.80;;;23.00;32.00;;;;;;5024906;28;20033;-50
2022/01/28 01:35:24;;;;;;;1.35;0.80;;;23.00;32.00;;;;;;5024275;28;20022;-50
2022/01/28 01:37:50;;;;;;;1.42;0.70;;;23.00;32.00;;;;;;5022133;28;20031;-50
2022/01/28 01:40:25;;;;;;;1.52;0.80;;;23.00;32.10;;;;;;5024596;28;20029;-50
2022/01/28 01:43:04;;;;;;;1.10;0.65;;;23.00;32.10;;;;;;5024676;28;20072;-51
2022/01/28 01:53:29;;;;;;;0.98;0.50;;;23.00;31.90;;;;;;5024379;28;20108;-50
2022/01/28 01:55:56;;;;;;;1.10;0.60;;;23.00;32.00;;;;;;5025071;28;20454;-50
2022/01/28 01:58:26;;;;;;;1.10;0.70;;;23.00;32.00;;;;;;5024558;28;20053;-50
2022/01/28 02:00:52;;;;;;;1.42;0.77;;;23.00;32.00;;;;;;5024794;28;20022;-51
2022/01/28 02:03:18;;;;;;;1.38;0.70;;;22.90;32.00;;;;;;5023675;28;20037;-50
2022/01/28 02:05:44;;;;;;;0.98;0.50;;;22.90;32.00;;;;;;5024203;28;20029;-50
2022/01/28 02:08:10;;;;;;;1.10;0.50;;;22.90;32.00;;;;;;5040043;28;20719;-51
2022/01/28 02:10:35;;;;;;;1.27;0.57;;;22.90;32.00;;;;;;5024143;28;20029;-50
2022/01/28 02:13:01;;;;;;;1.05;0.55;;;22.90;32.10;;;;;;5021039;28;20030;-51
2022/01/28 02:15:27;;;;;;;1.33;0.70;;;22.90;32.70;;;;;;5024531;28;20451;-51
2022/01/28 02:17:53;;;;;;;0.85;0.65;;;22.90;32.00;;;;;;5025355;28;20028;-50
2022/01/28 02:20:36;;;;;;;1.58;0.80;;;22.90;32.00;;;;;;5023990;28;20068;-50
2022/01/28 02:23:02;;;;;;;;;;;22.90;32.00;;;;;;5025279;28;20034;-50
2022/01/28 02:25:31;;;;;;;1.10;0.47;;;22.90;32.00;;;;;;5023838;28;20188;-49
2022/01/28 02:28:01;;;;;;;1.17;0.55;;;22.90;32.00;;;;;;5024795;28;20742;-50
2022/01/28 02:30:27;;;;;;;1.17;0.57;;;22.80;32.00;;;;;;5023008;28;20701;-50
2022/01/28 02:33:01;;;;;;;0.80;0.40;;;22.80;32.00;;;;;;5023644;28;20036;-51
2022/01/28 02:35:26;;;;;;;1.45;0.60;;;22.80;32.00;;;;;;5022299;28;20112;-51
2022/01/28 02:37:52;;;;;;;1.83;0.98;;;22.80;32.00;;;;;;5022173;28;20108;-50
2022/01/28 02:40:18;;;;;;;1.10;0.50;;;22.80;32.00;;;;;;5022607;28;20061;-50
2022/01/28 02:43:24;;;;;;;0.90;0.50;;;22.80;32.00;;;;;;5023550;28;20033;-50
2022/01/28 02:45:36;;;;;;;1.10;0.50;;;22.80;32.00;;;;;;5023989;28;20033;-50
2022/01/28 02:48:07;;;;;;;0.90;0.45;;;22.80;32.00;;;;;;5024582;28;20025;-50
2022/01/28 02:50:46;;;;;;;1.73;0.65;;;22.70;32.00;;;;;;5023237;28;20235;-50
2022/01/28 02:53:21;;;;;;;0.52;0.32;;;22.70;32.00;;;;;;5023883;28;20415;-50
2022/01/28 02:55:47;;;;;;;1.23;0.50;;;22.70;32.00;;;;;;5024340;28;20029;-50
2022/01/28 02:58:19;;;;;;;0.70;0.43;;;22.70;32.00;;;;;;5024575;28;20088;-51
2022/01/28 03:00:47;;;;;;;0.80;0.40;;;22.70;32.00;;;;;;5023464;28;20082;-50
2022/01/28 03:03:14;;;;;;;1.48;0.50;;;22.70;32.00;;;;;;5023381;28;20061;-50
2022/01/28 03:05:40;;;;;;;0.57;0.40;;;22.70;32.00;;;;;;5024701;28;20021;-50
2022/01/28 03:08:06;;;;;;;0.57;0.40;;;22.70;32.10;;;;;;5023989;28;20025;-49
2022/01/28 03:15:42;;;;;;;0.82;0.45;;;22.70;32.00;;;;;;5023635;28;20535;-49
2022/01/28 03:18:13;;;;;;;0.77;0.40;;;22.70;32.00;;;;;;5024125;28;20061;-50
2022/01/28 03:23:04;;;;;;;0.95;0.68;;;22.60;32.00;;;;;;5023427;28;20022;-51
2022/01/28 03:25:30;;;;;;;0.77;0.50;;;22.60;32.00;;;;;;5022835;28;20496;-50
2022/01/28 03:27:59;;;;;;;0.95;0.40;;;22.60;32.00;;;;;;5023974;28;20466;-50
2022/01/28 03:30:24;;;;;;;1.05;0.52;;;22.60;32.00;;;;;;5023363;28;20213;-51
2022/01/28 03:32:50;;;;;;;0.77;0.52;;;22.60;32.00;;;;;;5021616;28;20017;-50
2022/01/28 03:35:18;;;;;;;0.85;0.40;;;22.60;32.10;;;;;;5024063;28;20026;-50
2022/01/28 03:37:44;;;;;;;0.40;0.20;;;22.60;32.00;;;;;;5026683;28;20021;-50
2022/01/28 03:40:10;;;;;;;0.60;0.50;;;22.60;31.90;;;;;;5027491;28;20033;-50
2022/01/28 03:42:37;;;;;;;1.45;0.50;;;22.60;32.00;;;;;;5026740;28;20441;-50
2022/01/28 03:45:05;;;;;;;0.65;0.40;;;22.60;31.90;;;;;;5027478;28;20128;-49
2022/01/28 03:47:31;;;;;;;0.90;0.50;;;22.60;31.90;;;;;;5042353;28;20044;-50
2022/01/28 03:49:57;;;;;;;0.77;0.40;;;22.60;31.90;;;;;;5027742;28;20034;-49
2022/01/28 03:52:23;;;;;;;0.63;0.30;;;22.60;32.00;;;;;;5026866;28;20163;-50
2022/01/28 03:54:49;;;;;;;0.50;0.30;;;22.60;32.60;;;;;;5026922;28;20430;-51
2022/01/28 03:57:14;;;;;;;0.65;0.40;;;22.60;32.00;;;;;;5008984;28;20053;-50
2022/01/28 03:59:40;;;;;;;0.60;0.40;;;22.50;32.00;;;;;;5027305;28;20489;-50
2022/01/28 04:02:06;;;;;;;0.50;0.30;;;22.50;32.00;;;;;;5027150;28;20148;-49
2022/01/28 04:12:33;;;;;;;1.08;0.32;;;22.50;32.10;;;;;;5026436;28;20174;-50
2022/01/28 04:15:22;;;;;;;0.47;0.30;;;22.50;32.10;;;;;;5027296;28;20056;-50
2022/01/28 04:17:49;;;;;;;0.75;0.35;;;22.50;32.10;;;;;;5026879;28;20100;-51
2022/01/28 04:20:15;;;;;;;0.20;0.15;;;22.50;32.10;;;;;;5025850;28;20505;-51
2022/01/28 04:22:41;;;;;;;0.47;0.30;;;22.50;32.10;;;;;;5041665;28;20052;-49
2022/01/28 04:25:07;;;;;;;0.60;0.30;;;22.50;32.10;;;;;;5025501;28;20631;-49
2022/01/28 04:27:33;;;;;;;0.57;0.30;;;22.50;32.00;;;;;;5026850;28;20156;-50
2022/01/28 04:29:59;;;;;;;0.50;0.30;;;22.40;31.90;;;;;;5025975;28;20185;-51
2022/01/28 04:32:27;;;;;;;0.57;0.25;;;22.40;32.00;;;;;;5025073;28;20061;-51
2022/01/28 04:34:54;;;;;;;0.60;0.30;;;22.50;32.10;;;;;;5026797;28;20096;-50
2022/01/28 04:38:30;;;;;;;0.80;0.43;;;22.40;32.00;;;;;;5026191;28;20290;-51
2022/01/28 04:40:22;;;;;;;0.47;0.30;;;22.50;32.10;;;;;;5025264;28;20249;-50
2022/01/28 04:50:53;;;;;;;0.45;0.20;;;22.40;32.10;;;;;;5026061;28;20512;-50
2022/01/28 05:06:26;;;;;;;0.50;0.30;;;22.30;32.10;;;;;;5026578;28;20736;-50
2022/01/28 05:27:06;;;;;;;23.67;7.40;;;22.40;33.60;;;;;;5025144;28;20092;-50
2022/01/28 05:29:32;;;;;;;27.83;9.10;;;22.40;34.40;;;;;;5018965;28;20033;-50
2022/01/28 05:31:58;;;;;;;27.88;10.77;;;22.40;34.10;;;;;;5021979;28;20666;-50
2022/01/28 05:34:26;;;;;;;26.30;9.07;;;22.50;34.50;;;;;;5021666;28;20123;-50
2022/01/28 05:36:52;;;;;;;25.17;9.43;;;22.40;34.60;;;;;;5023054;28;20041;-51
2022/01/28 05:39:18;;;;;;;21.23;8.10;;;22.50;34.70;;;;;;5020578;28;20504;-51
2022/01/28 05:41:44;;;;;;;17.60;7.00;;;22.60;34.50;;;;;;5023506;28;20474;-49
2022/01/28 05:44:10;;;;;;;17.27;6.78;;;22.70;34.30;;;;;;5023179;28;20116;-50
2022/01/28 05:46:36;;;;;;;15.63;6.68;;;22.80;34.20;;;;;;5024721;28;20099;-51
2022/01/28 05:49:02;;;;;;;17.27;6.90;;;22.80;34.10;;;;;;5024602;28;20559;-49
2022/01/28 05:51:28;;;;;;;15.93;5.45;;;22.90;34.10;;;;;;5024333;28;20025;-50
2022/01/28 05:53:57;;;;;;;12.35;4.78;;;23.00;33.80;;;;;;5024718;28;20029;-48
2022/01/28 05:56:26;;;;;;;13.43;4.85;;;23.00;33.50;;;;;;5025592;28;20557;-49
2022/01/28 05:58:52;;;;;;;10.02;3.95;;;23.10;33.50;;;;;;5024941;28;20401;-50
2022/01/28 06:01:18;;;;;;;13.05;4.57;;;23.20;33.40;;;;;;5025369;28;20086;-50
2022/01/28 06:03:44;;;;;;;14.90;4.78;;;23.20;33.30;;;;;;5023481;28;20132;-51
2022/01/28 06:06:18;;;;;;;13.98;3.92;;;23.30;33.20;;;;;;5025120;28;20022;-49
2022/01/28 06:08:51;;;;;;;8.85;3.13;;;23.30;33.10;;;;;;5025191;28;20033;-50
2022/01/28 06:11:17;;;;;;;9.75;3.65;;;23.30;33.00;;;;;;5024351;28;20030;-51
2022/01/28 06:13:43;;;;;;;9.02;3.28;;;23.40;32.90;;;;;;5025080;28;20029;-50
2022/01/28 06:16:10;;;;;;;8.63;3.65;;;23.40;32.80;;;;;;5024882;28;20036;-49
2022/01/28 06:18:36;;;;;;;7.20;3.45;;;23.40;32.70;;;;;;5024912;28;20111;-51
2022/01/28 06:21:03;;;;;;;10.43;3.70;;;23.50;32.70;;;;;;5024383;28;20088;-49
2022/01/28 06:23:29;;;;;;;8.80;2.50;;;23.50;32.60;;;;;;5024852;28;20025;-50
2022/01/28 06:25:55;;;;;;;10.18;3.38;;;23.50;32.60;;;;;;5023697;28;20619;-50
2022/01/28 06:28:20;;;;;;;9.13;3.30;;;23.60;32.50;;;;;;5025194;28;20118;-48
2022/01/28 06:30:46;;;;;;;6.35;2.72;;;23.60;32.40;;;;;;5023263;28;20429;-50
2022/01/28 06:33:13;;;;;;;5.45;2.17;;;23.70;32.40;;;;;;5023158;28;20029;-51
2022/01/28 06:35:43;;;;;;;5.55;2.15;;;23.70;32.40;;;;;;5023510;28;20025;-49
2022/01/28 06:38:09;;;;;;;7.70;2.20;;;23.80;32.30;;;;;;5024795;28;20025;-49
2022/01/28 06:40:35;;;;;;;6.65;2.22;;;23.80;32.20;;;;;;5024204;28;20037;-49
2022/01/28 06:43:01;;;;;;;6.28;2.30;;;23.80;32.10;;;;;;5022898;28;20040;-50
2022/01/28 06:45:26;;;;;;;6.22;2.60;;;23.90;32.10;;;;;;5022570;28;20025;-50
2022/01/28 06:47:52;;;;;;;6.65;1.85;;;24.00;32.00;;;;;;5024196;28;20045;-49
2022/01/28 06:50:18;;;;;;;4.78;1.90;;;24.00;31.90;;;;;;5024108;28;20153;-51
2022/01/28 06:52:44;;;;;;;5.28;1.90;;;24.10;31.90;;;;;;5024422;28;20033;-49
2022/01/28 06:55:14;;;;;;;4.45;1.80;;;24.10;31.90;;;;;;5023989;28;20104;-49
2022/01/28 06:57:40;;;;;;;5.65;1.60;;;24.20;31.70;;;;;;5024215;28;20108;-50
2022/01/28 07:00:08;;;;;;;7.03;2.00;;;24.30;31.70;;;;;;5023598;28;20038;-50
2022/01/28 07:02:34;;;;;;;3.78;1.80;;;24.30;31.70;;;;;;5005762;28;20017;-50
2022/01/28 07:04:59;;;;;;;5.60;1.40;;;24.30;31.60;;;;;;5023157;28;20493;-50
2022/01/28 07:07:26;;;;;;;3.80;1.30;;;24.40;31.60;;;;;;5023198;28;20044;-49
2022/01/28 07:09:53;;;;;;;4.47;1.50;;;24.40;31.50;;;;;;5023433;28;20453;-50
2022/01/28 07:12:19;;;;;;;4.57;1.65;;;24.50;31.50;;;;;;5024387;28;20037;-49
2022/01/28 07:14:45;;;;;;;3.75;1.17;;;24.50;31.40;;;;;;5026962;28;20080;-51
2022/01/28 07:17:11;;;;;;;4.00;1.45;;;24.60;31.30;;;;;;5026799;28;20029;-50
2022/01/28 07:19:37;;;;;;;2.83;1.00;;;24.60;31.20;;;;;;5025618;28;20203;-50
2022/01/28 07:22:03;;;;;;;4.00;1.30;;;24.70;31.20;;;;;;5026214;28;20052;-51
2022/01/28 07:24:29;;;;;;;3.38;1.23;;;24.70;31.10;;;;;;5025544;28;20088;-50
2022/01/28 07:26:56;;;;;;;3.90;1.10;;;24.70;31.00;;;;;;5025881;28;20022;-50
2022/01/28 07:29:27;;;;;;;3.10;1.27;;;24.80;30.90;;;;;;5026353;28;20064;-49
2022/01/28 07:31:53;;;;;;;3.38;1.10;;;24.80;30.80;;;;;;5025613;28;20030;-48
2022/01/28 07:34:19;;;;;;;2.50;0.95;;;24.90;30.70;;;;;;5026043;28;20028;-50
2022/01/28 07:36:44;;;;;;;2.50;0.90;;;24.90;30.70;;;;;;5025972;28;20033;-49
2022/01/28 07:39:10;;;;;;;2.55;1.10;;;24.90;30.50;;;;;;5025879;28;20079;-50
2022/01/28 07:41:37;;;;;;;3.83;1.10;;;24.90;30.40;;;;;;5025579;28;20026;-50
2022/01/28 07:44:03;;;;;;;2.63;1.10;;;25.00;30.40;;;;;;5026543;28;20060;-50
2022/01/28 07:46:29;;;;;;;1.92;0.85;;;25.00;30.30;;;;;;5026080;28;20117;-49
2022/01/28 07:48:55;;;;;;;2.13;0.80;;;25.00;30.30;;;;;;5026014;28;20112;-50
2022/01/28 07:51:21;;;;;;;3.67;1.10;;;25.00;30.30;;;;;;5025819;28;20029;-50
2022/01/28 07:53:46;;;;;;;2.45;1.00;;;25.10;30.20;;;;;;5025638;28;20075;-50
2022/01/28 07:56:13;;;;;;;1.75;0.70;;;25.10;30.10;;;;;;5006097;28;20566;-50
2022/01/28 07:58:39;;;;;;;1.98;0.85;;;25.10;30.10;;;;;;5004616;28;20489;-49
2022/01/28 08:01:05;;;;;;;2.53;0.80;;;25.10;30.00;;;;;;5004701;28;20018;-50
2022/01/28 08:03:31;;;;;;;1.77;0.63;;;25.10;30.00;;;;;;4964901;28;1151997;-50
2022/01/28 08:05:57;;;;;;;1.75;0.70;;;25.20;30.00;;;;;;5007344;28;20038;-50
2022/01/28 08:08:22;;;;;;;1.63;0.55;;;25.20;30.00;;;;;;5007378;28;20211;-50
2022/01/28 08:10:49;;;;;;;2.47;0.80;;;25.20;29.90;;;;;;5021253;28;20035;-49
2022/01/28 08:13:16;;;;;;;2.60;1.00;;;25.20;29.90;;;;;;5026700;28;20029;-50
2022/01/28 08:15:42;;;;;;;2.00;0.50;;;25.20;29.90;;;;;;5026389;28;20040;-50
2022/01/28 08:18:09;;;;;;;1.30;0.50;;;25.20;29.90;;;;;;5026361;28;20032;-49
2022/01/28 08:20:34;;;;;;;2.22;0.50;;;25.20;29.80;;;;;;5026323;28;20029;-49
2022/01/28 08:23:01;;;;;;;1.58;0.75;;;25.20;29.80;;;;;;5025753;28;20034;-49
2022/01/28 08:25:29;;;;;;;2.38;0.50;;;25.20;29.80;;;;;;5041783;28;20608;-50
2022/01/28 08:27:55;;;;;;;1.60;0.73;;;25.30;29.80;;;;;;5026590;28;20033;-50
2022/01/28 08:30:24;;;;;;;1.63;0.50;;;25.30;29.70;;;;;;5026709;28;20060;-50
2022/01/28 08:32:50;;;;;;;1.52;0.50;;;25.30;29.70;;;;;;5025067;28;20048;-50
2022/01/28 08:35:18;;;;;;;2.53;0.75;;;25.30;29.70;;;;;;5025914;28;20088;-50
2022/01/28 08:37:44;;;;;;;2.20;0.57;;;25.30;29.70;;;;;;5026233;28;20022;-50
2022/01/28 08:40:12;;;;;;;2.05;0.82;;;25.30;29.70;;;;;;5025652;28;20040;-49
2022/01/28 08:42:38;;;;;;;2.00;0.63;;;25.30;29.70;;;;;;5025711;28;20029;-49
2022/01/28 08:45:05;;;;;;;1.50;0.40;;;25.30;29.60;;;;;;5026691;28;20036;-50
2022/01/28 08:47:31;;;;;;;1.02;0.40;;;25.30;29.50;;;;;;5025141;28;20138;-50
2022/01/28 08:49:57;;;;;;;1.15;0.32;;;25.30;29.40;;;;;;5025060;28;20509;-49
2022/01/28 08:52:22;;;;;;;1.80;0.73;;;25.40;29.40;;;;;;5026232;28;20033;-50
2022/01/28 08:54:49;;;;;;;1.58;0.65;;;25.30;29.40;;;;;;5026198;28;20029;-50
2022/01/28 08:57:14;;;;;;;1.30;0.50;;;25.40;29.30;;;;;;5025622;28;20022;-49
2022/01/28 08:59:42;;;;;;;1.63;0.30;;;25.40;29.30;;;;;;5026597;28;20029;-50
2022/01/28 09:02:09;;;;;;;1.00;0.35;;;25.40;29.30;;;;;;5025322;28;20500;-50
2022/01/28 09:04:35;;;;;;;1.48;0.40;;;25.40;29.30;;;;;;5024908;28;20041;-50
2022/01/28 09:07:00;;;;;;;1.42;0.50;;;25.40;29.30;;;;;;5025178;28;20040;-50
2022/01/28 09:09:26;;;;;;;0.77;0.22;;;25.40;29.10;;;;;;5025500;28;20037;-50
2022/01/28 09:12:05;;;;;;;1.27;0.43;;;25.40;29.10;;;;;;5024586;28;20121;-50
2022/01/28 09:14:31;;;;;;;2.03;0.60;;;25.40;29.00;;;;;;5024854;28;20033;-49
2022/01/28 09:16:57;;;;;;;1.45;0.50;;;25.40;29.00;;;;;;5025172;28;20087;-50
2022/01/28 09:19:23;;;;;;;2.05;0.40;;;25.40;29.00;;;;;;5039872;28;20615;-51
2022/01/28 09:21:49;;;;;;;0.63;0.40;;;25.40;29.10;;;;;;5024121;28;20030;-50
2022/01/28 09:24:15;;;;;;;1.67;0.60;;;25.40;29.30;;;;;;5009507;28;20041;-50
2022/01/28 09:26:41;;;;;;;2.35;0.30;;;25.40;29.30;;;;;;5025189;28;20026;-50
2022/01/28 09:29:07;;;;;;;1.15;0.28;;;25.40;29.40;;;;;;5022945;28;20072;-50
2022/01/28 09:31:32;;;;;;;1.75;0.35;;;25.40;29.50;;;;;;5024139;28;20116;-50
2022/01/28 09:33:58;;;;;;;1.30;0.32;;;25.40;29.50;;;;;;5023976;28;20370;-50
2022/01/28 09:36:24;;;;;;;1.92;0.55;;;25.40;29.50;;;;;;5023703;28;20022;-50
2022/01/28 09:38:50;;;;;;;1.13;0.30;;;25.40;29.50;;;;;;5023469;28;20760;-49
2022/01/28 09:41:17;;;;;;;0.35;0.20;;;25.40;29.40;;;;;;5021348;28;20039;-50
2022/01/28 09:43:44;;;;;;;1.00;0.50;;;25.40;29.40;;;;;;5024184;28;20022;-51
2022/01/28 09:46:11;;;;;;;1.63;0.22;;;25.40;29.40;;;;;;5025022;28;20050;-49
2022/01/28 09:48:38;;;;;;;1.10;0.30;;;25.40;29.40;;;;;;5024434;28;20029;-50
2022/01/28 09:51:05;;;;;;;1.88;0.40;;;25.40;29.30;;;;;;5023626;28;20037;-51
2022/01/28 09:53:31;;;;;;;0.75;0.30;;;25.40;29.30;;;;;;5023837;28;20532;-50
2022/01/28 09:55:57;;;;;;;1.67;0.40;;;25.40;29.30;;;;;;5024252;28;20042;-50
2022/01/28 09:58:23;;;;;;;1.15;0.45;;;25.40;29.30;;;;;;5023255;28;20080;-49
2022/01/28 10:00:49;;;;;;;1.75;0.47;;;25.40;29.20;;;;;;5023745;28;20695;-51
2022/01/28 10:03:16;;;;;;;1.50;0.50;;;25.40;29.30;;;;;;5023417;28;20076;-48
2022/01/28 10:05:45;;;;;;;1.05;0.28;;;25.40;29.30;;;;;;5022957;28;20028;-49
2022/01/28 10:08:22;;;;;;;1.50;0.50;;;25.40;29.20;;;;;;5024371;28;20075;-50
2022/01/28 10:11:03;;;;;;;1.13;0.40;;;25.40;29.20;;;;;;5023351;28;20022;-50
2022/01/28 10:13:40;;;;;;;1.40;0.30;;;25.40;29.00;;;;;;5004488;28;20025;-50
2022/01/28 10:16:08;;;;;;;1.08;0.22;;;25.40;29.00;;;;;;5023294;28;20043;-51
2022/01/28 10:18:35;;;;;;;0.95;0.30;;;25.40;29.00;;;;;;5006034;28;20033;-50
2022/01/28 10:21:01;;;;;;;0.50;0.20;;;25.40;29.00;;;;;;5001850;28;20290;-50
2022/01/28 10:23:27;;;;;;;1.33;0.40;;;25.40;29.00;;;;;;5004256;28;20063;-51
2022/01/28 10:26:01;;;;;;;0.95;0.30;;;25.40;29.10;;;;;;5019355;28;20107;-50
2022/01/28 10:28:28;;;;;;;0.85;0.30;;;25.40;29.10;;;;;;5023627;28;20083;-50
2022/01/28 10:30:54;;;;;;;0.73;0.20;;;25.40;29.10;;;;;;5023035;28;20053;-50
2022/01/28 10:33:23;;;;;;;1.80;0.30;;;25.40;29.10;;;;;;5022626;28;20126;-50
2022/01/28 10:36:02;;;;;;;0.90;0.30;;;25.40;29.10;;;;;;5021125;28;20028;-51
2022/01/28 10:38:38;;;;;;;1.08;0.30;;;25.40;29.10;;;;;;5023883;28;20061;-50
2022/01/28 10:41:11;;;;;;;0.60;0.20;;;25.40;29.00;;;;;;5022747;28;20033;-47
2022/01/28 10:43:44;;;;;;;0.52;0.25;;;25.40;29.10;;;;;;5022721;28;20049;-49
2022/01/28 10:46:10;;;;;;;0.90;0.30;;;25.40;29.10;;;;;;5023629;28;20117;-50
2022/01/28 10:48:49;;;;;;;0.85;0.25;;;25.40;29.00;;;;;;5024111;28;20112;-50
2022/01/28 10:51:21;;;;;;;1.40;0.32;;;25.40;29.00;;;;;;5023752;28;20040;-50
2022/01/28 10:54:11;;;;;;;1.80;0.40;;;25.40;29.00;;;;;;5023172;28;20104;-49
2022/01/28 10:57:00;;;;;;;0.73;0.20;;;25.40;29.10;;;;;;5023151;28;20045;-49
2022/01/28 10:59:29;;;;;;;0.57;0.20;;;25.40;29.10;;;;;;5022934;28;20167;-50
2022/01/28 11:01:55;;;;;;;0.40;0.20;;;25.40;29.00;;;;;;5022708;28;20025;-49
2022/01/28 11:04:21;;;;;;;0.68;0.30;;;25.40;29.10;;;;;;5023731;28;20037;-50
2022/01/28 11:06:49;;;;;;;0.90;0.30;;;25.40;29.10;;;;;;5023799;28;20460;-49
2022/01/28 11:09:17;;;;;;;0.43;0.20;;;25.40;29.10;;;;;;5023524;28;20033;-50
2022/01/28 11:11:43;;;;;;;0.47;0.20;;;25.40;29.10;;;;;;5020964;28;20060;-50
2022/01/28 11:14:09;;;;;;;0.70;0.20;;;25.40;29.10;;;;;;5023899;28;20025;-50
2022/01/28 11:16:36;;;;;;;1.05;0.25;;;25.40;29.10;;;;;;5021918;28;20030;-50
2022/01/28 11:19:03;;;;;;;0.50;0.20;;;25.40;29.10;;;;;;5004055;28;20022;-51
2022/01/28 11:21:38;;;;;;;1.70;0.20;;;25.40;29.20;;;;;;5003885;28;20108;-51
2022/01/28 11:24:56;;;;;;;1.13;0.32;;;25.40;29.30;;;;;;5004308;28;20105;-51
2022/01/28 11:27:30;;;;;;;2.08;0.40;;;25.40;29.30;;;;;;5020264;28;20038;-51
2022/01/28 11:30:17;;;;;;;2.17;0.40;;;25.40;29.30;;;;;;5023385;28;20061;-49
2022/01/28 11:33:02;;;;;;;0.57;0.20;;;25.40;29.30;;;;;;5022047;28;20026;-50
2022/01/28 11:35:58;;;;;;;0.52;0.20;;;25.40;29.20;;;;;;5023769;28;20029;-50
2022/01/28 11:38:29;;;;;;;0.65;0.25;;;25.40;29.30;;;;;;5023003;28;20112;-50
2022/01/28 11:41:19;;;;;;;0.60;0.20;;;25.40;29.30;;;;;;5023499;28;20541;-49
2022/01/28 11:43:49;;;;;;;1.08;0.20;;;25.40;29.20;;;;;;5022953;28;20048;-50
2022/01/28 11:46:37;;;;;;;0.20;0.20;;;25.40;29.20;;;;;;5003454;28;20046;-49
2022/01/28 11:49:06;;;;;;;0.68;0.20;;;25.30;29.20;;;;;;5003986;28;20303;-50
2022/01/28 11:51:37;;;;;;;0.80;0.20;;;25.30;29.20;;;;;;5020571;28;20049;-49
2022/01/28 11:54:06;;;;;;;0.20;0.10;;;25.30;29.30;;;;;;5023642;28;20052;-50
2022/01/28 11:56:33;;;;;;;0.70;0.20;;;25.40;29.20;;;;;;5023586;28;20034;-51
2022/01/28 11:59:04;;;;;;;1.48;0.35;;;25.30;29.20;;;;;;5026671;28;20033;-51
2022/01/28 12:01:36;;;;;;;0.70;0.20;;;25.30;29.20;;;;;;5026630;28;20306;-49
2022/01/28 12:04:23;;;;;;;0.90;0.28;;;25.30;29.20;;;;;;5026859;28;20045;-50
2022/01/28 12:07:01;;;;;;;0.10;0.10;;;25.30;29.30;;;;;;5027161;28;20041;-50
2022/01/28 12:09:32;;;;;;;0.17;0.10;;;25.30;29.30;;;;;;5007744;28;20025;-50
2022/01/28 12:12:01;;;;;;;1.08;0.30;;;25.30;29.20;;;;;;5024248;28;20033;-50
2022/01/28 12:14:53;;;;;;;0.60;0.28;;;25.30;29.20;;;;;;5025748;28;20029;-50
2022/01/28 12:17:31;;;;;;;1.02;0.30;;;25.30;29.30;;;;;;5026967;28;20079;-50
2022/01/28 12:20:24;;;;;;;0.35;0.20;;;25.30;30.00;;;;;;5024300;28;20556;-51
2022/01/28 12:23:08;;;;;;;0.38;0.20;;;25.30;30.20;;;;;;5025374;28;20030;-49
2022/01/28 12:25:36;;;;;;;1.13;0.40;;;25.30;30.40;;;;;;5026484;28;20040;-49
2022/01/28 12:28:20;;;;;;;2.35;0.68;;;25.30;31.00;;;;;;5024927;28;20029;-50
2022/01/28 12:31:00;;;;;;;3.35;0.90;;;25.30;32.20;;;;;;5024761;28;20116;-50
2022/01/28 12:33:29;;;;;;;5.88;1.52;;;25.30;31.90;;;;;;5024338;28;20029;-49
2022/01/28 12:35:57;;;;;;;3.75;1.20;;;25.30;32.10;;;;;;5026073;28;20215;-45
2022/01/28 12:38:28;;;;;;;4.38;1.58;;;25.30;32.40;;;;;;5024700;28;20093;-46
2022/01/28 12:40:54;;;;;;;2.47;0.70;;;25.30;32.50;;;;;;5023105;28;20112;-47
2022/01/28 12:43:23;;;;;;;3.85;0.88;;;25.30;32.30;;;;;;5025435;28;20534;-50
2022/01/28 12:46:08;;;;;;;6.05;1.15;;;25.30;32.20;;;;;;5025680;28;20112;-46
2022/01/28 12:48:35;;;;;;;3.33;0.80;;;25.30;32.60;;;;;;5024950;28;20033;-46
2022/01/28 12:51:03;;;;;;;4.05;0.70;;;25.30;32.40;;;;;;5025625;28;20588;-47
2022/01/28 12:53:31;;;;;;;3.15;0.68;;;25.30;32.70;;;;;;5024551;28;20021;-49
2022/01/28 12:55:59;;;;;;;2.65;0.70;;;25.30;32.80;;;;;;5025175;28;20371;-47
2022/01/28 12:59:01;;;;;;;3.92;1.20;;;25.30;33.70;;;;;;5023603;28;20032;-45
2022/01/28 13:01:27;;;;;;;3.47;1.42;;;25.30;33.30;;;;;;4985279;28;20026;-48
2022/01/28 13:04:08;;;;;;;1.15;0.50;;;25.30;33.40;;;;;;5020267;28;20413;-47
2022/01/28 13:09:23;;;;;;;3.88;1.17;;;25.20;33.30;;;;;;5022146;28;20025;-47
2022/01/28 13:11:54;;;;;;;4.70;1.48;;;25.30;33.20;;;;;;5019839;28;20036;-47
2022/01/28 13:14:40;;;;;;;6.18;1.20;;;25.20;33.80;;;;;;5022641;28;20379;-46
2022/01/28 13:17:08;;;;;;;3.88;1.17;;;25.20;33.00;;;;;;5022452;28;20037;-47
2022/01/28 13:19:33;;;;;;;2.25;0.80;;;25.20;33.00;;;;;;5023287;28;20755;-45
2022/01/28 13:21:59;;;;;;;3.35;1.00;;;25.30;32.90;;;;;;5024685;28;20108;-48
2022/01/28 13:24:29;;;;;;;2.85;0.77;;;25.30;32.70;;;;;;5024072;28;20037;-47
2022/01/28 13:26:58;;;;;;;2.72;0.80;;;25.20;32.60;;;;;;5022560;28;20075;-46
2022/01/28 13:29:49;;;;;;;3.40;1.00;;;25.20;32.70;;;;;;5024451;28;20037;-48
2022/01/28 13:32:23;;;;;;;2.63;0.90;;;25.20;33.10;;;;;;5024263;28;20428;-46
2022/01/28 13:34:57;;;;;;;2.38;0.95;;;25.20;33.50;;;;;;5024086;28;20029;-46
2022/01/28 13:37:32;;;;;;;4.40;1.20;;;25.20;33.50;;;;;;5022905;28;20064;-49
2022/01/28 13:39:58;;;;;;;2.53;1.10;;;25.30;34.30;;;;;;5024092;28;20779;-47
2022/01/28 13:42:24;;;;;;;5.28;1.30;;;25.30;35.00;;;;;;5023894;28;20041;-46
2022/01/28 13:44:50;;;;;;;4.18;1.40;;;25.30;34.80;;;;;;5024943;28;20029;-46
2022/01/28 13:47:19;;;;;;;4.88;1.70;;;25.30;34.50;;;;;;5024742;28;20033;-49
2022/01/28 13:49:45;;;;;;;3.33;0.93;;;25.30;34.40;;;;;;5024367;28;20095;-48
2022/01/28 13:52:29;;;;;;;3.47;1.10;;;25.30;34.30;;;;;;5024651;28;20029;-48
2022/01/28 13:54:55;;;;;;;2.75;0.88;;;25.30;34.10;;;;;;5025003;28;20086;-47
2022/01/28 13:57:28;;;;;;;4.15;1.60;;;25.30;34.10;;;;;;5024377;28;20311;-47
2022/01/28 14:00:01;;;;;;;4.53;1.45;;;25.30;34.00;;;;;;5025031;28;20024;-46
2022/01/28 14:02:26;;;;;;;5.30;1.30;;;25.20;33.90;;;;;;5024315;28;20149;-46
2022/01/28 14:04:53;;;;;;;5.63;1.05;;;25.20;33.80;;;;;;5025096;28;20120;-48
2022/01/28 14:07:22;;;;;;;5.07;1.33;;;25.20;33.50;;;;;;5024099;28;20037;-48
2022/01/28 14:09:58;;;;;;;4.00;1.20;;;25.20;33.40;;;;;;5024642;28;20037;-47
2022/01/28 14:16:12;;;;;;;4.63;1.20;;;25.20;33.20;;;;;;5025065;28;20052;-48
2022/01/28 14:18:02;;;;;;;4.13;1.10;;;25.20;33.10;;;;;;5024032;28;20091;-46
2022/01/28 14:20:28;;;;;;;3.50;1.10;;;25.20;33.10;;;;;;5024481;28;20034;-49
2022/01/28 14:22:54;;;;;;;3.83;1.30;;;25.20;33.00;;;;;;5023159;28;20021;-46
2022/01/28 14:25:23;;;;;;;3.97;1.13;;;25.20;33.00;;;;;;5025007;28;20488;-48
2022/01/28 14:28:23;;;;;;;2.97;0.80;;;25.20;32.90;;;;;;5024792;28;20025;-48
2022/01/28 14:30:55;;;;;;;2.80;0.82;;;25.20;32.90;;;;;;5024513;28;20033;-47
2022/01/28 14:33:21;;;;;;;2.50;0.90;;;25.20;32.80;;;;;;5024074;28;20026;-49